Time;durP1;ratioP1;P1;durP2;ratioP2;P2;SDS_P1;SDS_P2;PMS_P1;PMS_P2;Temp;Humidity;BMP_temperature;BMP_pressure;BME280_temperature;BME280_humidity;BME280_pressure;Samples;Min_cycle;Max_cycle;Signal;HPM_P1;HPM_P2
2021/10/17 00:02:22;;;;;;;;;;;10.30;99.90;;;;;;5075773;28;20330;-80
2021/10/17 00:04:48;;;;;;;;;;;10.30;99.90;;;;;;5074917;28;19920;-77
2021/10/17 00:07:14;;;;;;;;;;;10.30;99.90;;;;;;5068161;28;19916;-80
2021/10/17 00:09:40;;;;;;;;;;;10.30;99.90;;;;;;5071603;28;20015;-79
2021/10/17 00:12:06;;;;;;;;;;;10.30;99.90;;;;;;5069851;28;19961;-81
2021/10/17 00:14:33;;;;;;;;;;;10.40;99.90;;;;;;5075070;28;19913;-79
2021/10/17 00:16:58;;;;;;;;;;;10.60;99.90;;;;;;5072336;28;19912;-78
2021/10/17 00:19:24;;;;;;;;;;;10.60;99.90;;;;;;5075207;28;20272;-79
2021/10/17 00:21:51;;;;;;;;;;;10.60;99.90;;;;;;5061956;28;19928;-80
2021/10/17 00:24:16;;;;;;;;;;;10.60;99.90;;;;;;5070694;28;20212;-80
2021/10/17 00:26:42;;;;;;;;;;;10.50;99.90;;;;;;5065895;28;19912;-79
2021/10/17 00:29:07;;;;;;;;;;;10.50;99.90;;;;;;5074572;28;19935;-76
2021/10/17 00:31:33;;;;;;;;;;;10.50;99.90;;;;;;5073898;28;19912;-79
2021/10/17 00:33:59;;;;;;;;;;;10.50;99.90;;;;;;5072106;28;19920;-79
2021/10/17 00:36:26;;;;;;;;;;;10.50;99.90;;;;;;5063131;28;19960;-80
2021/10/17 00:38:52;;;;;;;;;;;10.50;99.90;;;;;;5065748;28;19928;-79
2021/10/17 00:41:17;;;;;;;;;;;10.50;99.90;;;;;;5064534;28;19909;-77
2021/10/17 00:43:43;;;;;;;;;;;10.50;99.90;;;;;;5074257;28;19924;-79
2021/10/17 00:46:18;;;;;;;;;;;10.40;99.90;;;;;;5073311;28;19932;-79
2021/10/17 00:48:44;;;;;;;;;;;10.50;99.90;;;;;;5073026;28;19915;-79
2021/10/17 00:51:10;;;;;;;;;;;10.40;99.90;;;;;;5073072;28;19917;-80
2021/10/17 00:53:36;;;;;;;;;;;10.40;99.90;;;;;;5074072;28;20027;-80
2021/10/17 00:56:02;;;;;;;;;;;10.30;99.90;;;;;;5072255;28;19909;-80
2021/10/17 00:58:27;;;;;;;;;;;10.30;99.90;;;;;;5058134;28;19917;-77
2021/10/17 01:00:53;;;;;;;;;;;10.30;99.90;;;;;;5056844;28;20315;-80
2021/10/17 01:03:19;;;;;;;;;;;10.30;99.90;;;;;;5072062;28;19923;-79
2021/10/17 01:05:45;;;;;;;;;;;10.30;99.90;;;;;;5067827;28;19912;-80
2021/10/17 01:08:10;;;;;;;;;;;10.30;99.90;;;;;;5070095;28;19919;-80
2021/10/17 01:10:36;;;;;;;;;;;10.20;99.90;;;;;;5057316;28;19971;-80
2021/10/17 01:13:01;;;;;;;;;;;10.20;99.90;;;;;;5068988;28;20204;-81
2021/10/17 01:15:27;;;;;;;;;;;10.20;99.90;;;;;;5064695;28;19962;-78
2021/10/17 01:17:53;;;;;;;;;;;10.10;99.90;;;;;;5062341;28;20304;-79
2021/10/17 01:20:18;;;;;;;;;;;10.10;99.90;;;;;;5062397;28;19908;-77
2021/10/17 01:22:44;;;;;;;;;;;10.10;99.90;;;;;;5070449;28;19955;-80
2021/10/17 01:25:10;;;;;;;;;;;10.10;99.90;;;;;;5060651;28;20256;-80
2021/10/17 01:27:36;;;;;;;;;;;10.10;99.90;;;;;;5060171;28;19916;-79
2021/10/17 01:30:03;;;;;;;;;;;10.10;99.90;;;;;;5065294;28;20215;-81
2021/10/17 01:32:29;;;;;;;;;;;10.10;99.90;;;;;;5066298;28;20303;-79
2021/10/17 01:34:54;;;;;;;;;;;10.20;99.90;;;;;;5075049;28;20057;-76
2021/10/17 01:37:20;;;;;;;;;;;10.20;99.90;;;;;;5067569;28;20235;-79
2021/10/17 01:39:45;;;;;;;;;;;10.20;99.90;;;;;;5060622;28;20299;-80
2021/10/17 01:42:11;;;;;;;;;;;10.20;99.90;;;;;;5054624;28;20050;-79
2021/10/17 01:44:37;;;;;;;;;;;10.10;99.90;;;;;;5074538;28;19919;-80
2021/10/17 01:47:05;;;;;;;;;;;10.10;99.90;;;;;;5063681;28;19908;-80
2021/10/17 01:49:30;;;;;;;;;;;10.10;99.90;;;;;;5061489;28;19917;-80
2021/10/17 01:51:56;;;;;;;;;;;10.00;99.90;;;;;;5064311;28;19923;-80
2021/10/17 01:54:23;;;;;;;;;;;9.90;99.90;;;;;;5068467;28;19913;-80
2021/10/17 01:56:49;;;;;;;;;;;9.80;99.90;;;;;;5066527;28;19931;-79
2021/10/17 01:59:15;;;;;;;;;;;9.80;99.90;;;;;;5059553;28;19912;-80
2021/10/17 02:01:40;;;;;;;;;;;9.80;99.90;;;;;;5055787;28;20007;-79
2021/10/17 02:04:06;;;;;;;;;;;9.70;99.90;;;;;;5065214;28;20303;-80
2021/10/17 02:06:32;;;;;;;;;;;9.70;99.90;;;;;;5058166;28;19917;-79
2021/10/17 02:08:57;;;;;;;;;;;9.70;99.90;;;;;;5058113;28;19917;-77
2021/10/17 02:11:23;;;;;;;;;;;9.70;99.90;;;;;;5068275;28;19920;-79
2021/10/17 02:13:49;;;;;;;;;;;9.70;99.90;;;;;;5055889;28;19913;-79
2021/10/17 02:16:14;;;;;;;;;;;9.70;99.90;;;;;;5063211;28;19921;-79
2021/10/17 02:18:40;;;;;;;;;;;9.80;99.90;;;;;;5060790;28;19912;-79
2021/10/17 02:21:06;;;;;;;;;;;9.80;99.90;;;;;;5067403;28;20307;-81
2021/10/17 02:23:32;;;;;;;;;;;9.70;99.90;;;;;;5070937;28;19995;-80
2021/10/17 02:25:57;;;;;;;;;;;9.80;99.90;;;;;;5083105;28;19916;-77
2021/10/17 02:28:23;;;;;;;;;;;9.70;99.90;;;;;;5059909;28;19943;-80
2021/10/17 02:30:49;;;;;;;;;;;9.70;99.90;;;;;;5058275;28;19940;-79
2021/10/17 02:33:14;;;;;;;;;;;9.60;99.90;;;;;;5058731;28;19924;-80
2021/10/17 02:35:40;;;;;;;;;;;9.60;99.90;;;;;;5068580;28;19953;-79
2021/10/17 02:38:06;;;;;;;;;;;9.50;99.90;;;;;;5057779;28;19921;-80
2021/10/17 02:40:31;;;;;;;;;;;9.50;99.90;;;;;;5055007;28;19924;-80
2021/10/17 02:42:57;;;;;;;;;;;9.40;99.90;;;;;;5054240;28;19974;-80
2021/10/17 02:45:22;;;;;;;;;;;9.40;99.90;;;;;;5054919;28;20212;-80
2021/10/17 02:47:48;;;;;;;;;;;9.40;99.90;;;;;;5074270;28;20304;-80
2021/10/17 02:50:14;;;;;;;;;;;9.30;99.90;;;;;;5065113;28;19912;-80
2021/10/17 02:52:39;;;;;;;;;;;9.30;99.90;;;;;;5068004;28;19909;-79
2021/10/17 02:55:05;;;;;;;;;;;9.30;99.90;;;;;;5054912;28;19940;-79
2021/10/17 02:57:31;;;;;;;;;;;9.30;99.90;;;;;;5051761;28;20007;-79
2021/10/17 02:59:57;;;;;;;;;;;9.30;99.90;;;;;;5065398;28;20015;-80
2021/10/17 03:02:22;;;;;;;;;;;9.30;99.90;;;;;;5054360;28;20050;-79
2021/10/17 03:04:48;;;;;;;;;;;9.30;99.90;;;;;;5072669;28;19916;-77
2021/10/17 03:07:13;;;;;;;;;;;9.30;99.90;;;;;;5062010;28;19913;-79
2021/10/17 03:09:39;;;;;;;;;;;9.40;99.90;;;;;;5072964;28;19978;-80
2021/10/17 03:12:05;;;;;;;;;;;9.30;99.90;;;;;;5058984;28;19908;-79
2021/10/17 03:14:30;;;;;;;;;;;9.30;99.90;;;;;;5068466;28;19923;-78
2021/10/17 03:16:56;;;;;;;;;;;9.30;99.90;;;;;;5073891;28;19952;-79
2021/10/17 03:19:21;;;;;;;;;;;9.20;99.90;;;;;;5062664;28;19913;-79
2021/10/17 03:21:47;;;;;;;;;;;9.10;99.90;;;;;;5076324;28;20212;-76
2021/10/17 03:24:13;;;;;;;;;;;9.10;99.90;;;;;;5069201;28;19908;-80
2021/10/17 03:26:38;;;;;;;;;;;9.00;99.90;;;;;;5064677;28;19923;-79
2021/10/17 03:29:04;;;;;;;;;;;9.00;99.90;;;;;;5072854;28;19916;-80
2021/10/17 03:31:32;;;;;;;;;;;9.00;99.90;;;;;;5061103;28;19913;-79
2021/10/17 03:33:58;;;;;;;;;;;9.00;99.90;;;;;;5067124;28;20004;-76
2021/10/17 03:36:24;;;;;;;;;;;9.00;99.90;;;;;;5064787;28;20015;-80
2021/10/17 03:38:49;;;;;;;;;;;9.00;99.90;;;;;;5065914;28;19920;-78
2021/10/17 03:41:15;;;;;;;;;;;9.00;99.90;;;;;;5070648;28;19917;-80
2021/10/17 03:43:40;;;;;;;;;;;9.10;99.90;;;;;;5068296;28;20239;-80
2021/10/17 03:46:06;;;;;;;;;;;9.20;99.90;;;;;;5072035;28;19919;-80
2021/10/17 03:48:32;;;;;;;;;;;9.30;99.90;;;;;;5067713;28;20505;-79
2021/10/17 03:50:57;;;;;;;;;;;9.30;99.90;;;;;;5070343;28;20321;-77
2021/10/17 03:53:23;;;;;;;;;;;9.40;99.90;;;;;;5075589;28;19908;-79
2021/10/17 03:55:49;;;;;;;;;;;9.40;99.90;;;;;;5073751;28;19920;-79
2021/10/17 03:58:14;;;;;;;;;;;9.40;99.90;;;;;;5075875;28;19920;-79
2021/10/17 04:00:40;;;;;;;;;;;9.40;99.90;;;;;;5069913;28;19912;-79
2021/10/17 04:03:05;;;;;;;;;;;9.40;99.90;;;;;;5072812;28;19926;-79
2021/10/17 04:05:31;;;;;;;;;;;9.40;99.90;;;;;;5074773;28;21782;-80
2021/10/17 04:07:56;;;;;;;;;;;9.40;99.90;;;;;;5075187;28;19967;-80
2021/10/17 04:10:22;;;;;;;;;;;9.50;99.90;;;;;;5072357;28;19958;-80
2021/10/17 04:12:48;;;;;;;;;;;9.60;99.90;;;;;;5078872;28;19921;-80
2021/10/17 04:15:13;;;;;;;;;;;9.60;99.90;;;;;;5075360;28;19912;-80
2021/10/17 04:17:39;;;;;;;;;;;9.60;99.90;;;;;;5074460;28;20003;-79
2021/10/17 04:20:05;;;;;;;;;;;9.60;99.90;;;;;;5072675;28;19923;-80
2021/10/17 04:22:30;;;;;;;;;;;9.60;99.90;;;;;;5074994;28;19923;-77
2021/10/17 04:24:56;;;;;;;;;;;9.70;99.90;;;;;;5066451;28;20207;-79
2021/10/17 04:27:21;;;;;;;;;;;9.80;99.90;;;;;;5076335;28;19974;-79
2021/10/17 04:29:47;;;;;;;;;;;9.90;99.90;;;;;;5082186;28;19916;-79
2021/10/17 04:32:13;;;;;;;;;;;10.00;99.90;;;;;;5073791;28;20258;-79
2021/10/17 04:34:38;;;;;;;;;;;10.00;99.90;;;;;;5075369;28;19917;-79
2021/10/17 04:37:06;;;;;;;;;;;10.10;99.90;;;;;;5071115;28;19932;-77
2021/10/17 04:39:31;;;;;;;;;;;10.00;99.90;;;;;;5063309;28;19977;-79
2021/10/17 04:41:58;;;;;;;;;;;10.00;99.90;;;;;;5067081;28;20010;-81
2021/10/17 04:44:24;;;;;;;;;;;10.10;99.90;;;;;;5063548;28;20322;-79
2021/10/17 04:46:49;;;;;;;;;;;10.10;99.90;;;;;;5062065;28;19913;-79
2021/10/17 04:49:15;;;;;;;;;;;10.10;99.90;;;;;;5064548;28;19923;-81
2021/10/17 04:51:40;;;;;;;;;;;10.00;99.90;;;;;;5075146;28;19952;-80
2021/10/17 04:54:06;;;;;;;;;;;10.00;99.90;;;;;;5063973;28;19924;-80
2021/10/17 04:56:31;;;;;;;;;;;9.90;99.90;;;;;;5059383;28;19913;-80
2021/10/17 04:58:57;;;;;;;;;;;9.90;99.90;;;;;;5069677;28;19920;-80
2021/10/17 05:01:23;;;;;;;;;;;9.90;99.90;;;;;;5074687;28;19948;-81
2021/10/17 05:03:48;;;;;;;;;;;9.90;99.90;;;;;;5073270;28;19917;-80
2021/10/17 05:06:14;;;;;;;;;;;9.80;99.90;;;;;;5062854;28;19912;-80
2021/10/17 05:08:39;;;;;;;;;;;9.80;99.90;;;;;;5074095;28;19962;-79
2021/10/17 05:11:05;;;;;;;;;;;9.80;99.90;;;;;;5075519;28;19919;-79
2021/10/17 05:13:31;;;;;;;;;;;9.80;99.90;;;;;;5060670;28;19924;-81
2021/10/17 05:15:57;;;;;;;;;;;9.80;99.90;;;;;;5069415;28;19916;-81
2021/10/17 05:18:22;;;;;;;;;;;9.80;99.90;;;;;;5073390;28;19912;-81
2021/10/17 05:20:48;;;;;;;;;;;9.90;99.90;;;;;;5055045;28;20368;-77
2021/10/17 05:23:14;;;;;;;;;;;9.90;99.90;;;;;;5054981;28;19917;-81
2021/10/17 05:25:40;;;;;;;;;;;9.80;99.90;;;;;;5057355;28;19908;-80
2021/10/17 05:28:06;;;;;;;;;;;9.90;99.90;;;;;;5076455;28;20589;-79
2021/10/17 05:30:32;;;;;;;;;;;10.00;99.90;;;;;;5061163;28;19912;-79
2021/10/17 05:32:58;;;;;;;;;;;10.00;99.90;;;;;;5071290;28;19943;-80
2021/10/17 05:35:23;;;;;;;;;;;10.00;99.90;;;;;;5073543;28;20315;-79
2021/10/17 05:37:49;;;;;;;;;;;10.00;99.90;;;;;;5072906;28;19951;-80
2021/10/17 05:40:15;;;;;;;;;;;10.10;99.90;;;;;;5073028;28;20265;-80
2021/10/17 05:42:40;;;;;;;;;;;10.00;99.90;;;;;;5072143;28;19920;-80
2021/10/17 05:45:06;;;;;;;;;;;10.10;99.90;;;;;;5072638;28;19920;-81
2021/10/17 05:47:32;;;;;;;;;;;10.00;99.90;;;;;;5069184;28;20299;-80
2021/10/17 05:49:57;;;;;;;;;;;10.10;99.90;;;;;;5073695;28;20219;-77
2021/10/17 05:52:23;;;;;;;;;;;10.10;99.90;;;;;;5072065;28;20047;-81
2021/10/17 05:54:48;;;;;;;;;;;10.00;99.90;;;;;;5071836;28;19917;-79
2021/10/17 05:57:14;;;;;;;;;;;10.10;99.90;;;;;;5073059;28;20272;-80
2021/10/17 05:59:39;;;;;;;;;;;10.10;99.90;;;;;;5070471;28;19916;-80
2021/10/17 06:02:05;;;;;;;;;;;10.00;99.90;;;;;;5063941;28;19921;-80
2021/10/17 06:04:31;;;;;;;;;;;10.00;99.90;;;;;;5071453;28;19923;-81
2021/10/17 06:06:57;;;;;;;;;;;10.00;99.90;;;;;;5079703;28;20007;-81
2021/10/17 06:09:22;;;;;;;;;;;10.10;99.90;;;;;;5073873;28;19920;-81
2021/10/17 06:11:48;;;;;;;;;;;10.10;99.90;;;;;;5080924;28;19931;-80
2021/10/17 06:14:14;;;;;;;;;;;10.20;99.90;;;;;;5071590;28;19920;-80
2021/10/17 06:16:39;;;;;;;;;;;10.20;99.90;;;;;;5088249;28;19913;-80
2021/10/17 06:19:05;;;;;;;;;;;10.20;99.90;;;;;;5071376;28;19916;-80
2021/10/17 06:21:30;;;;;;;;;;;10.20;99.90;;;;;;5072484;28;20548;-79
2021/10/17 06:23:56;;;;;;;;;;;10.30;99.90;;;;;;5079777;28;20031;-80
2021/10/17 06:26:22;;;;;;;;;;;10.30;99.90;;;;;;5066969;28;19913;-81
2021/10/17 06:28:47;;;;;;;;;;;10.30;99.90;;;;;;5069316;28;19916;-80
2021/10/17 06:31:13;;;;;;;;;;;10.40;99.90;;;;;;5072785;28;19920;-80
2021/10/17 06:33:38;;;;;;;;;;;10.40;99.90;;;;;;5071768;28;19956;-80
2021/10/17 06:36:04;;;;;;;;;;;10.30;99.90;;;;;;5071778;28;19991;-80
2021/10/17 06:38:30;;;;;;;;;;;10.30;99.90;;;;;;5071373;28;19912;-80
2021/10/17 06:40:55;;;;;;;;;;;10.30;99.90;;;;;;5071040;28;19916;-80
2021/10/17 06:43:21;;;;;;;;;;;10.30;99.90;;;;;;5071091;28;19921;-80
2021/10/17 06:45:46;;;;;;;;;;;10.30;99.90;;;;;;5072086;28;19952;-81
2021/10/17 06:48:12;;;;;;;;;;;10.30;99.90;;;;;;5086309;28;19912;-80
2021/10/17 06:50:37;;;;;;;;;;;10.30;99.90;;;;;;5069050;28;19985;-79
2021/10/17 06:53:03;;;;;;;;;;;10.30;99.90;;;;;;5091507;28;19912;-80
2021/10/17 06:55:29;;;;;;;;;;;10.30;99.90;;;;;;5088014;28;19978;-80
2021/10/17 06:57:54;;;;;;;;;;;10.40;99.90;;;;;;5070930;28;20356;-80
2021/10/17 07:00:20;;;;;;;;;;;10.40;99.90;;;;;;5070717;28;19913;-81
2021/10/17 07:02:45;;;;;;;;;;;10.40;99.90;;;;;;5074544;28;19920;-81
2021/10/17 07:05:11;;;;;;;;;;;10.50;99.90;;;;;;5069555;28;19939;-81
2021/10/17 07:07:36;;;;;;;;;;;10.50;99.90;;;;;;5071527;28;19935;-81
2021/10/17 07:10:02;;;;;;;;;;;10.50;99.90;;;;;;5069417;28;19915;-80
2021/10/17 07:12:28;;;;;;;;;;;10.60;99.90;;;;;;5069177;28;19973;-79
2021/10/17 07:14:54;;;;;;;;;;;10.60;99.90;;;;;;5068958;28;19913;-80
2021/10/17 07:17:20;;;;;;;;;;;10.70;99.90;;;;;;5070440;28;19913;-80
2021/10/17 07:19:45;;;;;;;;;;;10.70;99.90;;;;;;5055753;28;19954;-80
2021/10/17 07:22:11;;;;;;;;;;;10.80;99.90;;;;;;5066980;28;19916;-80
2021/10/17 07:24:37;;;;;;;;;;;10.80;99.90;;;;;;5070475;28;20231;-80
2021/10/17 07:27:03;;;;;;;;;;;10.70;99.90;;;;;;5073081;28;19919;-80
2021/10/17 07:29:29;;;;;;;;;;;10.70;99.90;;;;;;5075881;28;19913;-79
2021/10/17 07:31:55;;;;;;;;;;;10.80;99.90;;;;;;5074831;28;19912;-81
2021/10/17 07:34:20;;;;;;;;;;;10.80;99.90;;;;;;5075868;28;19920;-80
2021/10/17 07:36:46;;;;;;;;;;;10.80;99.90;;;;;;5072706;28;19964;-81
2021/10/17 07:39:12;;;;;;;;;;;10.90;99.90;;;;;;5075396;28;19927;-80
2021/10/17 07:41:39;;;;;;;;;;;10.90;99.90;;;;;;5075000;28;19924;-79
2021/10/17 07:44:05;;;;;;;;;;;10.90;99.90;;;;;;5073355;28;19908;-81
2021/10/17 07:46:31;;;;;;;;;;;10.80;99.90;;;;;;5084568;28;20235;-80
2021/10/17 07:48:58;;;;;;;;;;;10.80;99.90;;;;;;5072035;28;19917;-80
2021/10/17 07:51:25;;;;;;;;;;;10.80;99.90;;;;;;5075765;28;20287;-80
2021/10/17 07:53:51;;;;;;;;;;;10.90;99.90;;;;;;5074603;28;19912;-80
2021/10/17 07:56:16;;;;;;;;;;;10.90;99.90;;;;;;5069970;28;19920;-80
2021/10/17 07:58:42;;;;;;;;;;;10.90;99.90;;;;;;5065645;28;19913;-79
2021/10/17 08:01:08;;;;;;;;;;;11.00;99.90;;;;;;5072800;28;20019;-75
2021/10/17 08:03:34;;;;;;;;;;;11.00;99.90;;;;;;5076634;28;19995;-81
2021/10/17 08:05:59;;;;;;;;;;;11.00;99.90;;;;;;5076593;28;19948;-79
2021/10/17 08:08:25;;;;;;;;;;;11.10;99.90;;;;;;5075652;28;20008;-81
2021/10/17 08:10:50;;;;;;;;;;;11.10;99.90;;;;;;5074769;28;20204;-80
2021/10/17 08:13:16;;;;;;;;;;;11.20;99.90;;;;;;5073863;28;19916;-80
2021/10/17 08:15:41;;;;;;;;;;;11.20;99.90;;;;;;5071438;28;19913;-80
2021/10/17 08:18:07;;;;;;;;;;;11.20;99.90;;;;;;5072913;28;19909;-81
2021/10/17 08:20:33;;;;;;;;;;;11.20;99.90;;;;;;5090049;28;20308;-80
2021/10/17 08:22:58;;;;;;;;;;;11.30;99.90;;;;;;5075342;28;20304;-80
2021/10/17 08:25:24;;;;;;;;;;;11.40;99.90;;;;;;5073381;28;19909;-81
2021/10/17 08:27:50;;;;;;;;;;;11.40;99.90;;;;;;5076070;28;19916;-81
2021/10/17 08:30:15;;;;;;;;;;;11.50;99.90;;;;;;5073123;28;19913;-80
2021/10/17 08:32:41;;;;;;;;;;;11.50;99.90;;;;;;5074042;28;19913;-82
2021/10/17 08:35:07;;;;;;;;;;;11.50;99.90;;;;;;5074112;28;19913;-82
2021/10/17 08:37:33;;;;;;;;;;;11.50;99.90;;;;;;5072903;28;20023;-80
2021/10/17 08:39:59;;;;;;;;;;;11.60;99.90;;;;;;5085310;28;19908;-80
2021/10/17 08:42:25;;;;;;;;;;;11.60;99.90;;;;;;5072734;28;19916;-81
2021/10/17 08:44:55;;;;;;;;;;;11.60;99.90;;;;;;5074410;28;19919;-81
2021/10/17 08:47:21;;;;;;;;;;;11.70;99.90;;;;;;5069872;28;20012;-81
2021/10/17 08:49:47;;;;;;;;;;;11.60;99.90;;;;;;5073949;28;19920;-82
2021/10/17 08:52:12;;;;;;;;;;;11.60;99.90;;;;;;5071715;28;19912;-81
2021/10/17 08:54:39;;;;;;;;;;;11.60;99.90;;;;;;5074687;28;19915;-78
2021/10/17 08:57:05;;;;;;;;;;;11.70;99.90;;;;;;5075410;28;19908;-81
2021/10/17 08:59:30;;;;;;;;;;;11.70;99.90;;;;;;5072476;28;19973;-80
2021/10/17 09:01:56;;;;;;;;;;;11.80;99.90;;;;;;5073954;28;19916;-81
2021/10/17 09:04:28;;;;;;;;;;;11.90;99.90;;;;;;5072593;28;19908;-80
2021/10/17 09:06:53;;;;;;;;;;;11.90;99.90;;;;;;5069924;28;19939;-80
2021/10/17 09:09:20;;;;;;;;;;;12.00;99.90;;;;;;5069854;28;19913;-81
2021/10/17 09:11:45;;;;;;;;;;;12.10;99.90;;;;;;5066900;28;19965;-81
2021/10/17 09:14:12;;;;;;;;;;;12.30;99.90;;;;;;5084344;28;20011;-80
2021/10/17 09:16:39;;;;;;;;;;;12.60;99.90;;;;;;5070161;28;19946;-78
2021/10/17 09:19:08;;;;;;;;;;;12.70;99.90;;;;;;5069079;28;19916;-81
2021/10/17 09:21:34;;;;;;;;;;;12.80;99.90;;;;;;5073287;28;20042;-81
2021/10/17 09:24:00;;;;;;;;;;;12.90;99.90;;;;;;5070358;28;20006;-82
2021/10/17 09:26:25;;;;;;;;;;;12.90;99.90;;;;;;5069016;28;19916;-81
2021/10/17 09:28:51;;;;;;;;;;;13.00;99.90;;;;;;5071407;28;19919;-81
2021/10/17 09:31:18;;;;;;;;;;;13.00;99.90;;;;;;5072189;28;19915;-82
2021/10/17 09:33:45;;;;;;;;;;;13.10;99.90;;;;;;5072638;28;20332;-79
2021/10/17 09:36:17;;;;;;;;;;;13.20;99.90;;;;;;5067210;28;19927;-82
2021/10/17 09:38:44;;;;;;;;;;;13.20;99.90;;;;;;5073519;28;19942;-81
2021/10/17 09:41:14;;;;;;;;;;;13.20;99.90;;;;;;5069616;28;20219;-81
2021/10/17 09:43:43;;;;;;;;;;;13.30;99.90;;;;;;5068168;28;19977;-81
2021/10/17 09:46:12;;;;;;;;;;;13.30;99.90;;;;;;5059706;28;21888;-80
2021/10/17 09:48:38;;;;;;;;;;;13.40;99.90;;;;;;5062760;28;19929;-80
2021/10/17 09:51:05;;;;;;;;;;;13.40;99.90;;;;;;5059171;28;19945;-81
2021/10/17 09:53:39;;;;;;;;;;;13.40;99.90;;;;;;5069220;28;19913;-80
2021/10/17 09:56:05;;;;;;;;;;;13.50;99.90;;;;;;5066415;28;19912;-80
2021/10/17 09:58:31;;;;;;;;;;;13.50;99.90;;;;;;5061892;28;19913;-80
2021/10/17 10:00:56;;;;;;;;;;;13.60;99.90;;;;;;5086262;28;19966;-81
2021/10/17 10:03:23;;;;;;;;;;;13.70;99.90;;;;;;5054925;28;20283;-81
2021/10/17 10:05:49;;;;;;;;;;;13.90;99.90;;;;;;5059485;28;19916;-80
2021/10/17 10:08:21;;;;;;;;;;;13.90;99.90;;;;;;5064174;28;20351;-81
2021/10/17 10:10:48;;;;;;;;;;;14.00;99.90;;;;;;5065028;28;19920;-81
2021/10/17 10:13:15;;;;;;;;;;;14.00;99.90;;;;;;5065547;28;19916;-80
2021/10/17 10:15:41;;;;;;;;;;;14.10;99.90;;;;;;5083321;28;19936;-80
2021/10/17 10:18:08;;;;;;;;;;;14.10;99.90;;;;;;5070459;28;19923;-80
2021/10/17 10:20:33;;;;;;;;;;;14.20;99.90;;;;;;5066443;28;19913;-81
2021/10/17 10:22:59;;;;;;;;;;;14.30;99.90;;;;;;5070958;28;19916;-81
2021/10/17 10:25:25;;;;;;;;;;;14.20;99.90;;;;;;5072766;28;19999;-81
2021/10/17 10:27:51;;;;;;;;;;;14.20;99.90;;;;;;5062519;28;20003;-80
2021/10/17 10:30:18;;;;;;;;;;;14.30;99.90;;;;;;5068303;28;20261;-82
2021/10/17 10:33:03;;;;;;;;;;;14.30;99.90;;;;;;5061793;28;19958;-82
2021/10/17 10:35:29;;;;;;;;;;;14.40;99.90;;;;;;5067633;28;20353;-80
2021/10/17 10:37:55;;;;;;;;;;;14.50;99.90;;;;;;5057486;28;19920;-82
2021/10/17 10:40:20;;;;;;;;;;;14.50;99.90;;;;;;5069783;28;19908;-81
2021/10/17 10:42:47;;;;;;;;;;;14.60;99.90;;;;;;5078046;28;19917;-82
2021/10/17 10:45:20;;;;;;;;;;;14.60;99.90;;;;;;5072918;28;19909;-80
2021/10/17 10:47:47;;;;;;;;;;;14.60;99.90;;;;;;5067254;28;19916;-81
2021/10/17 10:50:13;;;;;;;;;;;14.60;99.90;;;;;;5073682;28;19948;-81
2021/10/17 10:52:42;;;;;;;;;;;14.60;99.90;;;;;;5069322;28;19955;-79
2021/10/17 10:55:09;;;;;;;;;;;14.60;99.90;;;;;;5073044;28;19909;-81
2021/10/17 10:57:39;;;;;;;;;;;14.60;99.90;;;;;;5072605;28;19916;-81
2021/10/17 11:00:05;;;;;;;;;;;14.60;99.90;;;;;;5073621;28;19912;-82
2021/10/17 11:02:31;;;;;;;;;;;14.60;99.90;;;;;;5074676;28;20239;-81
2021/10/17 11:05:00;;;;;;;;;;;14.60;99.90;;;;;;5064823;28;19908;-83
2021/10/17 11:07:36;;;;;;;;;;;14.60;99.90;;;;;;5073441;28;19920;-81
2021/10/17 11:10:21;;;;;;;;;;;14.60;99.90;;;;;;5065226;28;19913;-81
2021/10/17 11:12:47;;;;;;;;;;;14.50;99.90;;;;;;5058165;28;19916;-81
2021/10/17 11:15:17;;;;;;;;;;;14.50;99.90;;;;;;5066168;28;19908;-81
2021/10/17 11:17:49;;;;;;;;;;;14.40;99.90;;;;;;5064571;28;19909;-81
2021/10/17 11:20:16;;;;;;;;;;;14.30;99.90;;;;;;5078686;22;19929;-81
2021/10/17 11:22:42;;;;;;;;;;;14.20;99.90;;;;;;5039636;28;20271;-81
2021/10/17 11:25:12;;;;;;;;;;;14.20;99.90;;;;;;5030461;28;19909;-80
2021/10/17 11:27:38;;;;;;;;;;;14.20;99.90;;;;;;5032342;28;19944;-79
2021/10/17 11:30:05;;;;;;;;;;;14.20;99.90;;;;;;5031792;28;19998;-80
2021/10/17 11:32:34;;;;;;;;;;;14.10;99.90;;;;;;5036470;28;19964;-83
2021/10/17 11:35:04;;;;;;;;;;;14.10;99.90;;;;;;5037146;28;20209;-79
2021/10/17 11:37:31;;;;;;;;;;;14.10;99.90;;;;;;5037596;28;19932;-81
2021/10/17 11:40:16;;;;;;;;;;;14.10;99.90;;;;;;5036921;28;19913;-80
2021/10/17 11:42:45;;;;;;;;;;;14.10;99.90;;;;;;5032976;28;19921;-80
2021/10/17 11:45:15;;;;;;;;;;;14.20;99.90;;;;;;5035270;28;19917;-81
2021/10/17 11:47:44;;;;;;;;;;;14.10;99.90;;;;;;5035815;28;19916;-80
2021/10/17 11:50:10;;;;;;;;;;;14.10;99.90;;;;;;5037720;28;19909;-80
2021/10/17 11:52:36;;;;;;;;;;;14.10;99.90;;;;;;5034297;28;19918;-81
2021/10/17 11:55:01;;;;;;;;;;;14.10;99.90;;;;;;5042669;28;19923;-81
2021/10/17 11:57:31;;;;;;;;;;;14.10;99.90;;;;;;5028230;28;19917;-81
2021/10/17 12:00:00;;;;;;;;;;;14.10;99.90;;;;;;5028645;28;20032;-81
2021/10/17 12:02:30;;;;;;;;;;;14.10;99.90;;;;;;5035668;28;19975;-80
2021/10/17 12:04:55;;;;;;;;;;;14.10;99.90;;;;;;5044777;28;19913;-81
2021/10/17 12:07:21;;;;;;;;;;;14.20;99.90;;;;;;5042190;28;19919;-79
2021/10/17 12:09:46;;;;;;;;;;;14.10;99.90;;;;;;5051613;28;19952;-81
2021/10/17 12:12:12;;;;;;;;;;;14.10;99.90;;;;;;5031534;28;19925;-79
2021/10/17 12:14:38;;;;;;;;;;;14.10;99.90;;;;;;5031309;28;19926;-81
2021/10/17 12:17:03;;;;;;;;;;;14.20;99.90;;;;;;5038468;28;19936;-79
2021/10/17 12:19:29;;;;;;;;;;;14.20;99.90;;;;;;5039973;28;19913;-81
2021/10/17 12:21:55;;;;;;;;;;;14.20;99.90;;;;;;5035392;28;19913;-81
2021/10/17 12:24:21;;;;;;;;;;;14.20;99.90;;;;;;5029963;28;19917;-80
2021/10/17 12:26:54;;;;;;;;;;;14.20;99.90;;;;;;5043707;28;19920;-80
2021/10/17 12:29:22;;;;;;;;;;;14.20;99.90;;;;;;5049921;28;19921;-80
2021/10/17 12:31:53;;;;;;;;;;;14.20;99.90;;;;;;5033992;28;19913;-80
2021/10/17 12:34:35;;;;;;;;;;;14.20;99.90;;;;;;5046365;28;19913;-80
2021/10/17 12:37:02;;;;;;;;;;;14.20;99.90;;;;;;5030510;28;20347;-81
2021/10/17 12:39:27;;;;;;;;;;;14.20;99.90;;;;;;5037071;28;19970;-80
2021/10/17 12:41:57;;;;;;;;;;;14.30;99.90;;;;;;5052187;28;19921;-82
2021/10/17 12:44:22;;;;;;;;;;;14.30;99.90;;;;;;5049988;28;19925;-81
2021/10/17 12:47:00;;;;;;;;;;;14.30;99.90;;;;;;5035020;28;19921;-80
2021/10/17 12:49:35;;;;;;;;;;;14.20;99.90;;;;;;5032627;28;19964;-78
2021/10/17 12:52:02;;;;;;;;;;;14.20;99.90;;;;;;5043147;28;20237;-79
2021/10/17 12:54:28;;;;;;;;;;;14.30;99.90;;;;;;5036379;28;19921;-79
2021/10/17 12:56:58;;;;;;;;;;;14.30;99.90;;;;;;5033461;28;20049;-78
2021/10/17 12:59:25;;;;;;;;;;;14.40;99.90;;;;;;5034283;28;20435;-76
2021/10/17 13:02:06;;;;;;;;;;;14.40;99.90;;;;;;5035064;28;20015;-79
2021/10/17 13:04:43;;;;;;;;;;;14.50;99.90;;;;;;5034872;28;19932;-79
2021/10/17 13:07:10;;;;;;;;;;;14.50;99.90;;;;;;5034203;28;19928;-79
2021/10/17 13:09:59;;;;;;;;;;;14.50;99.90;;;;;;5034536;28;19963;-79
2021/10/17 13:12:25;;;;;;;;;;;14.60;99.90;;;;;;5027591;28;19917;-79
2021/10/17 13:15:18;;;;;;;;;;;14.70;99.90;;;;;;5036292;28;19924;-79
2021/10/17 13:17:45;;;;;;;;;;;14.60;99.90;;;;;;5002640;28;19914;-80
2021/10/17 13:20:16;;;;;;;;;;;14.60;99.90;;;;;;5001834;28;19948;-78
2021/10/17 13:22:43;;;;;;;;;;;14.60;99.90;;;;;;4984023;28;20012;-80
2021/10/17 13:25:09;;;;;;;;;;;14.70;99.90;;;;;;5002668;28;20423;-80
2021/10/17 13:27:35;;;;;;;;;;;14.60;99.90;;;;;;5000839;28;19937;-79
2021/10/17 13:30:01;;;;;;;;;;;14.60;99.90;;;;;;5003363;28;20301;-79
2021/10/17 13:32:28;;;;;;;;;;;14.50;99.90;;;;;;4985449;28;19952;-79
2021/10/17 13:34:54;;;;;;;;;;;14.40;99.90;;;;;;4987835;28;19950;-79
2021/10/17 13:37:20;;;;;;;;;;;14.40;99.90;;;;;;5002698;28;19918;-79
2021/10/17 13:39:45;;;;;;;;;;;14.30;99.90;;;;;;5003390;28;19925;-79
2021/10/17 13:42:11;;;;;;;;;;;14.30;99.90;;;;;;5004560;28;20329;-79
2021/10/17 13:44:37;;;;;;;;;;;14.40;99.90;;;;;;5003691;28;20369;-79
2021/10/17 13:47:02;;;;;;;;;;;14.40;99.90;;;;;;5001821;28;20001;-79
2021/10/17 13:49:28;;;;;;;;;;;14.30;99.90;;;;;;4996278;28;19921;-79
2021/10/17 13:51:54;;;;;;;;;;;14.40;99.90;;;;;;5007886;28;19924;-80
2021/10/17 13:54:20;;;;;;;;;;;14.40;99.90;;;;;;5022517;28;20240;-77
2021/10/17 13:56:46;;;;;;;;;;;14.40;99.90;;;;;;5033753;28;19921;-80
2021/10/17 13:59:12;;;;;;;;;;;14.40;99.90;;;;;;5034622;28;19920;-79
2021/10/17 14:01:38;;;;;;;;;;;14.40;99.90;;;;;;5033132;28;20216;-80
2021/10/17 14:04:04;;;;;;;;;;;14.40;99.90;;;;;;5033965;28;19917;-80
2021/10/17 14:06:30;;;;;;;;;;;14.30;99.90;;;;;;5031192;28;20417;-79
2021/10/17 14:08:55;;;;;;;;;;;14.30;99.90;;;;;;5033014;28;19924;-79
2021/10/17 14:11:21;;;;;;;;;;;14.30;99.90;;;;;;5033559;28;20222;-79
2021/10/17 14:13:47;;;;;;;;;;;14.30;99.90;;;;;;5034153;28;19914;-79
2021/10/17 14:16:12;;;;;;;;;;;14.30;99.90;;;;;;5032034;28;19920;-79
2021/10/17 14:18:39;;;;;;;;;;;14.30;99.90;;;;;;5046435;28;19940;-79